createdAt,value
2023-05-16T00:00:01.213Z,63.71
2023-05-16T00:02:32.010Z,63.81
2023-05-16T00:05:04.599Z,63.92
2023-05-16T00:07:35.856Z,64.05
2023-05-16T00:10:07.431Z,64.25
2023-05-16T00:12:39.644Z,63.97
2023-05-16T00:15:14.272Z,64.06
2023-05-16T00:17:46.791Z,63.92
2023-05-16T00:20:19.151Z,64.07
2023-05-16T00:22:49.616Z,64.38
2023-05-16T00:25:20.130Z,64.28
2023-05-16T00:27:50.739Z,64.37
2023-05-16T00:30:22.869Z,64.53
2023-05-16T00:32:57.062Z,64.49
2023-05-16T00:35:27.744Z,64.62
2023-05-16T00:37:58.313Z,64.40
2023-05-16T00:40:29.055Z,64.80
2023-05-16T00:42:59.851Z,64.73
2023-05-16T00:45:30.998Z,64.65
2023-05-16T00:48:01.664Z,64.92
2023-05-16T00:50:34.499Z,64.99
2023-05-16T00:53:05.458Z,65.05
2023-05-16T00:55:36.273Z,65.00
2023-05-16T00:58:42.977Z,65.23
2023-05-16T01:01:14.390Z,65.17
2023-05-16T01:03:47.188Z,65.22
2023-05-16T01:06:17.701Z,65.16
2023-05-16T01:08:48.253Z,64.86
2023-05-16T01:11:28.085Z,64.89
2023-05-16T01:14:10.818Z,65.23
2023-05-16T01:16:48.923Z,65.13
2023-05-16T01:19:44.128Z,65.35
2023-05-16T01:22:47.777Z,65.20
2023-05-16T01:25:33.812Z,65.27
2023-05-16T01:28:05.725Z,65.18
2023-05-16T01:30:38.077Z,65.25
2023-05-16T01:33:08.914Z,65.22
2023-05-16T01:35:45.665Z,65.23
2023-05-16T01:38:21.859Z,65.25
2023-05-16T01:40:59.347Z,65.23
2023-05-16T01:43:38.377Z,65.08
2023-05-16T01:46:21.795Z,65.13
2023-05-16T01:49:17.316Z,65.14
2023-05-16T01:51:55.430Z,65.09
2023-05-16T01:54:31.512Z,64.89
2023-05-16T01:57:05.431Z,64.98
2023-05-16T01:59:37.029Z,65.13
2023-05-16T02:02:07.534Z,65.27
2023-05-16T02:04:38.022Z,65.13
2023-05-16T02:07:08.722Z,65.12
2023-05-16T02:09:39.175Z,64.84
2023-05-16T02:12:11.547Z,64.99
2023-05-16T02:14:42.171Z,64.79
2023-05-16T02:17:12.720Z,64.71
2023-05-16T02:19:43.788Z,64.74
2023-05-16T02:22:13.730Z,65.02
2023-05-16T02:24:45.110Z,64.85
2023-05-16T02:27:15.906Z,64.65
2023-05-16T02:29:46.466Z,64.65
2023-05-16T02:32:17.718Z,64.67
2023-05-16T02:34:48.247Z,64.93
2023-05-16T02:37:18.780Z,64.59
2023-05-16T02:39:49.237Z,64.64
2023-05-16T02:42:19.949Z,64.79
2023-05-16T02:44:50.416Z,64.66
2023-05-16T02:47:21.856Z,64.58
2023-05-16T02:49:53.372Z,64.96
2023-05-16T02:52:24.015Z,64.66
2023-05-16T02:57:28.133Z,64.71
2023-05-16T02:59:59.864Z,64.87
2023-05-16T03:02:30.817Z,64.76
2023-05-16T03:05:01.702Z,64.62
2023-05-16T03:07:32.170Z,64.71
2023-05-16T03:10:02.619Z,64.87
2023-05-16T03:12:33.155Z,64.80
2023-05-16T03:15:04.190Z,64.79
2023-05-16T03:17:34.796Z,64.86
2023-05-16T03:20:09.412Z,64.97
2023-05-16T03:22:40.525Z,64.93
2023-05-16T03:25:11.758Z,64.72
2023-05-16T03:27:44.767Z,64.68
2023-05-16T03:30:17.079Z,64.97
2023-05-16T03:32:48.991Z,64.70
2023-05-16T03:35:19.681Z,64.77
2023-05-16T03:37:50.247Z,65.01
2023-05-16T03:40:23.007Z,64.72
2023-05-16T03:42:53.426Z,64.56
2023-05-16T03:45:24.169Z,64.92
2023-05-16T03:47:54.818Z,64.96
2023-05-16T03:50:25.867Z,64.88
2023-05-16T03:52:56.577Z,65.08
2023-05-16T03:55:27.364Z,64.81
2023-05-16T03:57:58.317Z,64.80
2023-05-16T04:00:29.213Z,64.75
2023-05-16T04:02:59.763Z,64.82
2023-05-16T04:05:30.623Z,64.91
2023-05-16T04:08:01.334Z,65.01
2023-05-16T04:10:32.152Z,64.56
2023-05-16T04:13:02.550Z,65.10
2023-05-16T04:15:33.097Z,64.82
2023-05-16T04:18:05.293Z,64.92
2023-05-16T04:20:36.730Z,65.15
2023-05-16T04:23:07.195Z,65.11
2023-05-16T04:25:37.707Z,65.04
2023-05-16T04:28:08.291Z,65.03
2023-05-16T04:30:39.044Z,65.07
2023-05-16T04:33:09.538Z,64.91
2023-05-16T04:35:41.509Z,64.67
2023-05-16T04:38:12.075Z,64.96
2023-05-16T04:40:43.333Z,65.12
2023-05-16T04:43:13.802Z,65.00
2023-05-16T04:45:44.324Z,65.34
2023-05-16T04:48:15.514Z,65.36
2023-05-16T04:50:46.012Z,65.03
2023-05-16T04:53:16.549Z,65.16
2023-05-16T04:55:47.527Z,64.94
2023-05-16T04:58:18.049Z,65.03
2023-05-16T05:00:48.538Z,64.79
2023-05-16T05:03:19.190Z,64.90
2023-05-16T05:05:49.916Z,64.85
2023-05-16T05:08:20.705Z,64.91
2023-05-16T05:10:51.626Z,65.06
2023-05-16T05:13:22.144Z,65.29
2023-05-16T05:15:53.151Z,65.31
2023-05-16T05:18:23.707Z,65.32
2023-05-16T05:20:54.199Z,65.60
2023-05-16T05:23:24.878Z,65.60
2023-05-16T05:25:55.476Z,65.59
2023-05-16T05:28:25.899Z,65.53
2023-05-16T05:30:56.351Z,65.37
2023-05-16T05:33:29.735Z,65.47
2023-05-16T05:36:03.293Z,65.37
2023-05-16T05:38:34.562Z,65.47
2023-05-16T05:41:05.006Z,65.60
2023-05-16T05:43:35.568Z,65.67
2023-05-16T05:46:06.736Z,65.51
2023-05-16T05:48:37.447Z,65.57
2023-05-16T05:51:08.280Z,65.53
2023-05-16T05:53:38.913Z,65.69
2023-05-16T05:56:09.633Z,65.65
2023-05-16T05:58:41.900Z,65.48
2023-05-16T06:01:13.271Z,65.70
2023-05-16T06:03:44.020Z,65.62
2023-05-16T06:06:15.660Z,65.84
2023-05-16T06:08:46.296Z,65.68
2023-05-16T06:11:16.758Z,65.69
2023-05-16T06:13:47.271Z,65.91
2023-05-16T06:16:17.985Z,66.02
2023-05-16T06:18:48.949Z,65.69
2023-05-16T06:21:19.558Z,65.80
2023-05-16T06:23:50.110Z,65.89
2023-05-16T06:26:22.673Z,65.80
2023-05-16T06:28:53.305Z,65.93
2023-05-16T06:31:23.836Z,66.04
2023-05-16T06:33:54.475Z,66.00
2023-05-16T06:36:25.370Z,65.77
2023-05-16T06:38:55.864Z,65.75
2023-05-16T06:41:26.423Z,65.63
2023-05-16T06:43:56.936Z,65.55
2023-05-16T06:46:38.369Z,65.58
2023-05-16T06:49:09.011Z,65.45
2023-05-16T06:51:40.614Z,65.49
2023-05-16T06:54:11.148Z,65.52
2023-05-16T06:56:42.012Z,65.56
2023-05-16T06:59:12.479Z,65.42
2023-05-16T07:01:43.072Z,65.24
2023-05-16T07:04:13.661Z,65.32
2023-05-16T07:06:44.347Z,65.04
2023-05-16T07:09:14.850Z,64.91
2023-05-16T07:11:45.345Z,64.83
2023-05-16T07:14:15.963Z,65.04
2023-05-16T07:16:46.875Z,65.15
2023-05-16T07:19:17.462Z,64.93
2023-05-16T07:21:47.998Z,65.02
2023-05-16T07:24:18.554Z,64.99
2023-05-16T07:26:49.118Z,64.67
2023-05-16T07:29:19.774Z,64.95
2023-05-16T07:31:50.238Z,65.08
2023-05-16T07:34:20.772Z,64.81
2023-05-16T07:36:54.278Z,64.82
2023-05-16T07:39:24.753Z,64.75
2023-05-16T07:41:55.266Z,64.87
2023-05-16T07:44:25.775Z,64.97
2023-05-16T07:46:56.253Z,64.86
2023-05-16T07:49:27.096Z,65.01
2023-05-16T07:51:57.618Z,65.02
2023-05-16T07:54:28.099Z,65.26
2023-05-16T07:56:58.637Z,65.12
2023-05-16T07:59:29.550Z,64.76
2023-05-16T08:02:00.430Z,64.72
2023-05-16T08:04:31.016Z,64.41
2023-05-16T08:07:01.536Z,64.37
2023-05-16T08:09:32.050Z,64.10
2023-05-16T08:12:03.590Z,63.95
2023-05-16T08:14:33.114Z,63.81
2023-05-16T08:17:03.632Z,63.84
2023-05-16T08:19:34.135Z,64.09
2023-05-16T08:22:07.863Z,63.96
2023-05-16T08:24:38.676Z,63.94
2023-05-16T08:27:09.708Z,63.89
2023-05-16T08:29:40.220Z,63.87
2023-05-16T08:32:11.388Z,64.02
2023-05-16T08:34:42.551Z,63.94
2023-05-16T08:37:13.754Z,63.91
2023-05-16T08:39:45.027Z,63.34
2023-05-16T08:42:15.993Z,63.31
2023-05-16T08:44:46.597Z,63.43
2023-05-16T08:47:22.914Z,63.39
2023-05-16T08:49:57.164Z,63.01
2023-05-16T08:52:33.414Z,62.65
2023-05-16T08:55:10.963Z,62.27
2023-05-16T08:57:43.675Z,62.14
2023-05-16T09:00:16.266Z,61.75
2023-05-16T09:02:47.285Z,61.71
2023-05-16T09:05:19.040Z,61.82
2023-05-16T09:07:49.490Z,61.60
2023-05-16T09:10:20.318Z,61.46
2023-05-16T09:12:51.033Z,61.20
2023-05-16T09:15:22.493Z,61.07
2023-05-16T09:17:53.065Z,61.02
2023-05-16T09:20:23.812Z,61.03
2023-05-16T09:22:55.955Z,61.37
2023-05-16T09:25:30.774Z,61.32
2023-05-16T09:28:03.535Z,61.38
2023-05-16T09:30:37.235Z,61.74
2023-05-16T09:33:09.316Z,61.63
2023-05-16T09:35:45.313Z,61.42
2023-05-16T09:38:19.909Z,61.30
2023-05-16T09:40:51.433Z,61.45
2023-05-16T09:43:26.338Z,61.11
2023-05-16T09:46:00.499Z,60.92
2023-05-16T09:48:31.318Z,61.00
2023-05-16T09:51:04.768Z,61.12
2023-05-16T09:53:36.086Z,61.35
2023-05-16T09:56:08.888Z,60.88
2023-05-16T09:58:40.714Z,60.89
2023-05-16T10:01:12.376Z,60.84
2023-05-16T10:03:44.228Z,60.65
2023-05-16T10:06:16.728Z,60.11
2023-05-16T10:08:48.806Z,60.15
2023-05-16T10:11:21.761Z,60.21
2023-05-16T10:13:54.198Z,60.29
2023-05-16T10:16:25.615Z,60.06
2023-05-16T10:18:57.106Z,60.27
2023-05-16T10:21:29.709Z,60.01
2023-05-16T10:24:04.986Z,59.72
2023-05-16T10:26:36.319Z,60.07
2023-05-16T10:29:08.213Z,60.30
2023-05-16T10:31:39.443Z,59.90
2023-05-16T10:34:10.375Z,59.62
2023-05-16T10:36:41.487Z,59.54
2023-05-16T10:39:13.019Z,59.46
2023-05-16T10:41:44.291Z,59.53
2023-05-16T10:44:18.237Z,59.48
2023-05-16T10:46:49.509Z,59.43
2023-05-16T10:49:27.755Z,59.45
2023-05-16T10:52:13.368Z,59.27
2023-05-16T10:54:45.533Z,59.39
2023-05-16T10:57:22.122Z,59.23
2023-05-16T10:59:53.944Z,59.30
2023-05-16T11:02:29.947Z,59.41
2023-05-16T11:05:02.204Z,59.92
2023-05-16T11:07:36.716Z,60.07
2023-05-16T11:10:09.586Z,59.89
2023-05-16T11:12:43.974Z,60.04
2023-05-16T11:15:23.189Z,60.19
2023-05-16T11:18:04.937Z,60.33
2023-05-16T11:20:37.173Z,59.96
2023-05-16T11:23:27.577Z,60.08
2023-05-16T11:26:00.826Z,59.90
2023-05-16T11:28:31.493Z,60.16
2023-05-16T11:31:05.661Z,60.24
2023-05-16T11:33:37.144Z,60.20
2023-05-16T11:38:44.180Z,60.10
2023-05-16T11:41:17.709Z,60.04
2023-05-16T11:43:48.240Z,60.35
2023-05-16T11:46:18.964Z,60.44
2023-05-16T11:48:49.636Z,60.49
2023-05-16T11:51:23.176Z,60.65
2023-05-16T11:53:53.861Z,60.48
2023-05-16T11:56:24.925Z,60.35
2023-05-16T11:58:56.435Z,60.15
2023-05-16T12:01:28.789Z,60.16
2023-05-16T12:03:59.923Z,60.41
2023-05-16T12:06:31.521Z,60.05
2023-05-16T12:09:04.156Z,60.06
2023-05-16T12:11:34.688Z,59.99
2023-05-16T12:14:05.392Z,60.02
2023-05-16T12:16:37.824Z,60.06
2023-05-16T12:19:09.643Z,60.03
2023-05-16T12:21:39.770Z,59.78
2023-05-16T12:24:13.336Z,59.79
2023-05-16T12:26:44.728Z,59.74
2023-05-16T12:29:15.991Z,59.37
2023-05-16T12:31:47.349Z,59.15
2023-05-16T12:34:23.398Z,59.18
2023-05-16T12:36:57.471Z,59.38
2023-05-16T12:39:27.954Z,59.51
2023-05-16T12:41:58.465Z,59.19
2023-05-16T12:44:32.596Z,59.17
2023-05-16T12:47:03.396Z,59.36
2023-05-16T12:49:35.722Z,59.69
2023-05-16T12:52:08.035Z,59.52
2023-05-16T12:54:38.882Z,59.73
2023-05-16T12:57:10.349Z,59.96
2023-05-16T12:59:40.899Z,60.00
2023-05-16T13:02:13.876Z,60.02
2023-05-16T13:04:44.460Z,60.27
2023-05-16T13:07:15.257Z,60.28
2023-05-16T13:09:45.836Z,60.28
2023-05-16T13:12:16.320Z,60.40
2023-05-16T13:14:46.828Z,60.50
2023-05-16T13:17:17.823Z,60.51
2023-05-16T13:19:49.050Z,60.36
2023-05-16T13:22:19.911Z,60.57
2023-05-16T13:24:50.748Z,60.84
2023-05-16T13:27:21.251Z,61.03
2023-05-16T13:29:51.789Z,61.36
2023-05-16T13:32:22.437Z,61.54
2023-05-16T13:34:53.021Z,61.43
2023-05-16T13:37:24.653Z,61.58
2023-05-16T13:39:56.134Z,61.28
2023-05-16T13:42:26.930Z,61.22
2023-05-16T13:44:57.412Z,61.39
2023-05-16T13:47:28.004Z,61.47
2023-05-16T13:49:58.561Z,61.59
2023-05-16T13:52:29.087Z,61.83
2023-05-16T13:54:59.622Z,61.87
2023-05-16T13:57:30.624Z,61.97
2023-05-16T14:02:43.148Z,61.77
2023-05-16T14:05:14.064Z,61.87
2023-05-16T14:07:46.768Z,61.91
2023-05-16T14:10:17.606Z,61.94
2023-05-16T14:12:49.234Z,62.07
2023-05-16T14:15:19.773Z,62.00
2023-05-16T14:17:50.387Z,62.09
2023-05-16T14:20:21.015Z,62.18
2023-05-16T14:22:51.573Z,62.05
2023-05-16T14:25:22.103Z,62.08
2023-05-16T14:27:52.666Z,62.10
2023-05-16T14:30:23.834Z,62.21
2023-05-16T14:32:54.486Z,62.51
2023-05-16T14:35:25.240Z,62.59
2023-05-16T14:37:55.876Z,62.77
2023-05-16T14:40:26.631Z,62.98
2023-05-16T14:42:57.242Z,63.03
2023-05-16T14:45:28.303Z,63.07
2023-05-16T14:47:59.528Z,63.14
2023-05-16T14:50:30.072Z,63.27
2023-05-16T14:53:01.076Z,63.46
2023-05-16T14:55:31.984Z,63.42
2023-05-16T14:58:02.563Z,63.62
2023-05-16T15:00:33.112Z,63.71
2023-05-16T15:03:03.710Z,63.70
2023-05-16T15:05:34.802Z,63.69
2023-05-16T15:08:06.036Z,63.75
2023-05-16T15:10:36.963Z,63.73
2023-05-16T15:13:07.462Z,63.74
2023-05-16T15:15:38.935Z,63.59
2023-05-16T15:18:11.266Z,63.61
2023-05-16T15:20:42.168Z,63.66
2023-05-16T15:23:13.891Z,63.69
2023-05-16T15:25:44.995Z,63.89
2023-05-16T15:28:15.604Z,63.85
2023-05-16T15:30:46.181Z,63.65
2023-05-16T15:33:16.739Z,63.56
2023-05-16T15:35:48.586Z,63.54
2023-05-16T15:38:19.127Z,63.54
2023-05-16T15:40:52.786Z,63.56
2023-05-16T15:43:31.826Z,63.46
2023-05-16T15:46:02.380Z,63.37
2023-05-16T15:48:33.062Z,63.16
2023-05-16T15:51:03.748Z,63.10
2023-05-16T15:53:34.241Z,63.00
2023-05-16T15:56:04.795Z,63.02
2023-05-16T15:58:35.284Z,63.02
2023-05-16T16:01:06.054Z,62.92
2023-05-16T16:03:36.754Z,62.91
2023-05-16T16:06:07.741Z,62.95
2023-05-16T16:08:38.273Z,62.94
2023-05-16T16:11:09.255Z,62.97
2023-05-16T16:13:39.757Z,62.90
2023-05-16T16:16:10.591Z,62.82
2023-05-16T16:18:41.130Z,62.89
2023-05-16T16:21:12.114Z,62.99
2023-05-16T16:23:43.244Z,62.85
2023-05-16T16:26:13.744Z,62.96
2023-05-16T16:28:44.243Z,63.04
2023-05-16T16:31:15.128Z,62.92
2023-05-16T16:33:49.065Z,62.93
2023-05-16T16:36:19.884Z,62.90
2023-05-16T16:38:50.424Z,62.89
2023-05-16T16:41:20.956Z,62.82
2023-05-16T16:43:53.008Z,62.83
2023-05-16T16:46:23.738Z,62.90
2023-05-16T16:48:54.919Z,63.06
2023-05-16T16:51:25.589Z,63.27
2023-05-16T16:53:58.106Z,63.11
2023-05-16T16:56:30.064Z,63.06
2023-05-16T16:59:00.590Z,63.20
2023-05-16T17:01:32.101Z,63.13
2023-05-16T17:04:03.104Z,63.08
2023-05-16T17:06:33.599Z,63.18
2023-05-16T17:09:06.900Z,63.32
2023-05-16T17:11:40.494Z,63.45
2023-05-16T17:14:11.882Z,63.47
2023-05-16T17:16:42.472Z,63.41
2023-05-16T17:19:13.057Z,63.47
2023-05-16T17:21:44.520Z,63.48
2023-05-16T17:24:15.707Z,63.49
2023-05-16T17:26:46.235Z,63.51
2023-05-16T17:29:16.741Z,63.43
2023-05-16T17:31:47.201Z,63.72
2023-05-16T17:34:17.727Z,63.83
2023-05-16T17:36:48.393Z,63.75
2023-05-16T17:39:20.056Z,64.13
2023-05-16T17:41:50.648Z,64.16
2023-05-16T17:44:22.174Z,64.39
2023-05-16T17:46:53.764Z,64.33
2023-05-16T17:49:25.593Z,64.33
2023-05-16T17:51:58.207Z,64.50
2023-05-16T17:54:31.153Z,64.28
2023-05-16T17:57:02.861Z,64.52
2023-05-16T17:59:33.404Z,64.74
2023-05-16T18:02:04.202Z,64.87
2023-05-16T18:04:34.683Z,64.92
2023-05-16T18:07:07.283Z,65.17
2023-05-16T18:09:37.850Z,65.02
2023-05-16T18:12:09.606Z,65.31
2023-05-16T18:14:40.173Z,65.27
2023-05-16T18:17:10.673Z,65.42
2023-05-16T18:19:41.432Z,65.78
2023-05-16T18:22:13.228Z,65.82
2023-05-16T18:24:44.718Z,65.88
2023-05-16T18:27:16.171Z,66.07
2023-05-16T18:29:46.765Z,66.08
2023-05-16T18:32:17.382Z,66.35
2023-05-16T18:34:48.070Z,66.21
2023-05-16T18:37:18.708Z,66.39
2023-05-16T18:39:49.697Z,66.47
2023-05-16T18:42:20.493Z,66.58
2023-05-16T18:44:51.533Z,66.59
2023-05-16T18:47:22.294Z,66.48
2023-05-16T18:49:53.222Z,66.57
2023-05-16T18:52:23.818Z,66.66
2023-05-16T18:54:54.288Z,66.84
2023-05-16T18:57:24.834Z,66.76
2023-05-16T18:59:56.549Z,66.89
2023-05-16T19:02:37.911Z,67.01
2023-05-16T19:05:14.465Z,67.09
2023-05-16T19:07:45.393Z,67.15
2023-05-16T19:10:15.897Z,67.18
2023-05-16T19:12:49.121Z,67.02
2023-05-16T19:15:19.886Z,66.90
2023-05-16T19:17:50.444Z,66.79
2023-05-16T19:20:21.099Z,66.89
2023-05-16T19:22:51.665Z,66.82
2023-05-16T19:25:22.282Z,66.84
2023-05-16T19:27:52.830Z,66.78
2023-05-16T19:30:24.127Z,66.96
2023-05-16T19:32:54.607Z,66.88
2023-05-16T19:35:25.447Z,66.79
2023-05-16T19:37:56.481Z,66.99
2023-05-16T19:40:27.117Z,66.95
2023-05-16T19:42:57.744Z,66.97
2023-05-16T19:45:28.404Z,67.06
2023-05-16T19:47:59.251Z,67.28
2023-05-16T19:50:30.042Z,67.34
2023-05-16T19:53:00.578Z,67.39
2023-05-16T19:55:31.620Z,67.44
2023-05-16T19:58:02.358Z,67.39
2023-05-16T20:00:33.150Z,67.28
2023-05-16T20:03:03.765Z,67.35
2023-05-16T20:05:34.627Z,67.43
2023-05-16T20:08:05.257Z,67.50
2023-05-16T20:10:36.280Z,67.42
2023-05-16T20:13:06.827Z,67.64
2023-05-16T20:15:37.627Z,67.70
2023-05-16T20:18:09.737Z,67.66
2023-05-16T20:20:40.386Z,67.71
2023-05-16T20:23:10.942Z,67.85
2023-05-16T20:25:41.520Z,67.78
2023-05-16T20:28:12.047Z,67.91
2023-05-16T20:30:42.550Z,67.94
2023-05-16T20:33:13.083Z,67.47
2023-05-16T20:35:43.601Z,67.89
2023-05-16T20:38:14.172Z,67.63
2023-05-16T20:40:44.689Z,67.18
2023-05-16T20:43:15.168Z,67.16
2023-05-16T20:45:46.231Z,67.26
2023-05-16T20:48:16.981Z,67.18
2023-05-16T20:50:47.731Z,67.32
2023-05-16T20:53:18.623Z,67.03
2023-05-16T20:55:49.108Z,66.79
2023-05-16T20:58:20.053Z,66.96
2023-05-16T21:00:50.956Z,66.95
2023-05-16T21:03:22.586Z,66.70
2023-05-16T21:05:54.252Z,66.77
2023-05-16T21:08:24.754Z,67.03
2023-05-16T21:10:55.269Z,66.94
2023-05-16T21:13:25.931Z,67.24
2023-05-16T21:15:56.501Z,67.04
2023-05-16T21:18:27.453Z,67.27
2023-05-16T21:20:58.046Z,67.28
2023-05-16T21:23:28.724Z,67.09
2023-05-16T21:25:59.289Z,67.12
2023-05-16T21:28:31.183Z,66.93
2023-05-16T21:31:03.331Z,67.17
2023-05-16T21:33:33.853Z,67.01
2023-05-16T21:36:04.761Z,67.02
2023-05-16T21:38:35.284Z,66.97
2023-05-16T21:41:05.943Z,67.06
2023-05-16T21:43:36.458Z,67.21
2023-05-16T21:46:07.118Z,67.11
2023-05-16T21:48:38.330Z,67.03
2023-05-16T21:51:09.098Z,67.25
2023-05-16T21:53:39.588Z,67.18
2023-05-16T21:56:10.186Z,67.35
2023-05-16T21:58:42.389Z,67.28
2023-05-16T22:01:16.691Z,67.13
2023-05-16T22:03:47.437Z,67.22
2023-05-16T22:06:18.177Z,67.41
2023-05-16T22:08:48.732Z,67.42
2023-05-16T22:11:19.237Z,67.26
2023-05-16T22:13:50.708Z,67.62
2023-05-16T22:16:21.900Z,67.47
2023-05-16T22:18:52.760Z,67.61
2023-05-16T22:21:23.630Z,67.51
2023-05-16T22:23:54.579Z,67.71
2023-05-16T22:26:25.102Z,67.70
2023-05-16T22:28:55.616Z,67.64
2023-05-16T22:31:26.285Z,68.06
2023-05-16T22:33:56.868Z,67.70
2023-05-16T22:36:27.441Z,67.58
2023-05-16T22:38:58.147Z,67.67
2023-05-16T22:41:29.143Z,67.57
2023-05-16T22:43:59.776Z,67.73
2023-05-16T22:46:30.447Z,67.71
2023-05-16T22:49:00.991Z,67.64
2023-05-16T22:51:31.571Z,67.92
2023-05-16T22:54:02.054Z,67.67
2023-05-16T22:56:32.756Z,67.82
2023-05-16T22:59:03.269Z,67.86
2023-05-16T23:01:33.835Z,67.94
2023-05-16T23:04:04.909Z,67.96
2023-05-16T23:06:35.658Z,68.08
2023-05-16T23:09:06.336Z,67.91
2023-05-16T23:11:36.944Z,67.84
2023-05-16T23:14:07.419Z,68.11
2023-05-16T23:16:37.925Z,68.18
2023-05-16T23:19:09.828Z,68.17
2023-05-16T23:21:40.617Z,68.41
2023-05-16T23:24:11.213Z,68.38
2023-05-16T23:26:41.747Z,68.34
2023-05-16T23:29:12.583Z,68.26
2023-05-16T23:31:43.202Z,68.56
2023-05-16T23:34:13.719Z,68.52
2023-05-16T23:36:44.248Z,68.36
2023-05-16T23:39:14.732Z,68.35
2023-05-16T23:41:45.305Z,68.44
2023-05-16T23:44:15.860Z,68.15
2023-05-16T23:46:46.368Z,68.54
2023-05-16T23:49:17.301Z,68.35
2023-05-16T23:51:57.527Z,68.17
2023-05-16T23:54:28.922Z,68.12
2023-05-16T23:56:59.414Z,68.34
2023-05-16T23:59:29.906Z,68.28
